Terminal Aerodrome Forecast
Issued by NWS

Home | Current Version | Previous Version | Text Only | Print | Product List | Glossary On
Versions: 1 2 3 4 5 6 7 8 9 10 11 12 13 14 15
000
FTUS44 KTSA 282340
TAFMLC
TAF
KMLC 282340Z 2900/2924 09007KT P6SM SCT040 BKN250
      TEMPO 2901/2905 3SM TSRA BR BKN025CB
     FM290500 16009KT P6SM VCTS BKN015CB
     FM291200 17010KT 4SM -TSRA BR OVC012CB
     FM291900 33012KT 5SM -TSRA BR OVC007CB=

USA.gov is the U.S. government's official web portal to all federal, state and local government web resources and services.